EGBJ

Gloucestershire Airport

Staverton, United Kingdom
METAR EGBJ 251750Z 01002KT 9999 FEW011 BKN027 16/14 Q1018
Observed Flight Rules
May-25 @ 17:50 UTC (11 hours ago) Marginal Visual Flight Rules
Wind Visibility Clouds
10° at 2 knots 10,000+ meters
  • Few at 1,100' AGL
  • Broken at 2,700' AGL
Temperatures Readings
Current 16°C / 61°F
Dewpoint 14°C / 57°F
Humidity 88%
Altimeter 30.06" Hg
Pressure 1018 hPa
Elevation 29
METAR EGBJ 251750Z 01002KT 9999 FEW011 BKN027 16/14 Q1018
Observed Flight Rules
May-25 @ 17:50 UTC
(11 hours ago)
MVFR
Wind Visibility
10° at 2 knots 10,000+ meters
Clouds
  • Few at 1,100' AGL
  • Broken at 2,700' AGL
Temperature Dewpoint
16°C / 61°F 14°C / 57°F
Humidity Altimeter Pressure
88% 30.06" Hg 1018 hPa